createdAt,value
2017-09-04T00:00:07.022Z,-86
2017-09-04T00:02:37.176Z,-86
2017-09-04T00:05:07.135Z,-86
2017-09-04T00:07:36.154Z,-86
2017-09-04T00:10:06.454Z,-86
2017-09-04T00:12:35.201Z,-86
2017-09-04T00:15:04.149Z,-86
2017-09-04T00:17:33.116Z,-86
2017-09-04T00:20:01.964Z,-86
2017-09-04T00:22:30.786Z,-86
2017-09-04T00:24:59.565Z,-85
2017-09-04T00:27:28.897Z,-85
2017-09-04T00:29:57.980Z,-86
2017-09-04T00:32:26.875Z,-86
2017-09-04T00:34:55.557Z,-85
2017-09-04T00:37:24.693Z,-85
2017-09-04T00:39:59.471Z,-85
2017-09-04T00:42:28.408Z,-85
2017-09-04T00:44:57.413Z,-86
2017-09-04T00:47:26.194Z,-85
2017-09-04T00:50:01.297Z,-86
2017-09-04T00:52:29.991Z,-86
2017-09-04T00:54:58.732Z,-86
2017-09-04T00:57:27.577Z,-86
2017-09-04T00:59:56.558Z,-86
2017-09-04T01:02:25.660Z,-85
2017-09-04T01:05:00.553Z,-86
2017-09-04T01:07:29.411Z,-85
2017-09-04T01:09:58.383Z,-86
2017-09-04T01:12:27.079Z,-86
2017-09-04T01:14:55.995Z,-86
2017-09-04T01:17:24.714Z,-86
2017-09-04T01:19:53.543Z,-85
2017-09-04T01:22:22.426Z,-85
2017-09-04T01:24:51.156Z,-86
2017-09-04T01:27:19.847Z,-85
2017-09-04T01:29:48.653Z,-86
2017-09-04T01:32:17.376Z,-86
2017-09-04T01:34:46.928Z,-86
2017-09-04T01:37:15.730Z,-86
2017-09-04T01:39:44.557Z,-85
2017-09-04T01:42:13.251Z,-85
2017-09-04T01:44:41.947Z,-86
2017-09-04T01:47:10.694Z,-86
2017-09-04T01:49:39.372Z,-86
2017-09-04T01:52:14.400Z,-86
2017-09-04T01:54:43.091Z,-86
2017-09-04T01:57:16.925Z,-86
2017-09-04T01:59:45.808Z,-86
2017-09-04T02:02:14.536Z,-86
2017-09-04T02:04:44.087Z,-86
2017-09-04T02:07:15.808Z,-87
2017-09-04T02:09:44.543Z,-86
2017-09-04T02:12:19.432Z,-86
2017-09-04T02:14:48.167Z,-86
2017-09-04T02:17:16.997Z,-86
2017-09-04T02:19:46.544Z,-86
2017-09-04T02:22:15.316Z,-86
2017-09-04T02:24:44.128Z,-86
2017-09-04T02:27:19.358Z,-86
2017-09-04T02:29:48.083Z,-86
2017-09-04T02:32:16.993Z,-85
2017-09-04T02:34:45.704Z,-86
2017-09-04T02:37:14.591Z,-86
2017-09-04T02:39:43.377Z,-86
2017-09-04T02:42:12.970Z,-86
2017-09-04T02:44:42.929Z,-86
2017-09-04T02:47:11.672Z,-85
2017-09-04T02:49:46.266Z,-85
2017-09-04T02:52:15.094Z,-84
2017-09-04T02:54:43.974Z,-86
2017-09-04T02:57:12.688Z,-86
2017-09-04T02:59:41.407Z,-85
2017-09-04T03:02:10.110Z,-87
2017-09-04T03:04:38.959Z,-86
2017-09-04T03:07:08.487Z,-86
2017-09-04T03:09:38.152Z,-86
2017-09-04T03:12:06.862Z,-86
2017-09-04T03:14:35.627Z,-86
2017-09-04T03:17:04.366Z,-86
2017-09-04T03:19:33.064Z,-86
2017-09-04T03:22:07.938Z,-86
2017-09-04T03:24:42.936Z,-86
2017-09-04T03:27:11.973Z,-86
2017-09-04T03:29:46.927Z,-86
2017-09-04T03:32:15.707Z,-85
2017-09-04T03:34:44.421Z,-86
2017-09-04T03:37:13.105Z,-86
2017-09-04T03:39:41.918Z,-86
2017-09-04T03:42:10.716Z,-86
2017-09-04T03:44:39.578Z,-86
2017-09-04T03:47:08.316Z,-86
2017-09-04T03:49:37.091Z,-86
2017-09-04T03:52:05.891Z,-86
2017-09-04T03:54:34.764Z,-85
2017-09-04T03:57:09.724Z,-85
2017-09-04T03:59:38.466Z,-87
2017-09-04T04:02:07.177Z,-86
2017-09-04T04:04:36.946Z,-86
2017-09-04T04:07:05.714Z,-87
2017-09-04T04:09:34.412Z,-86
2017-09-04T04:12:03.150Z,-86
2017-09-04T04:14:31.854Z,-85
2017-09-04T04:17:00.615Z,-86
2017-09-04T04:19:29.333Z,-86
2017-09-04T04:21:58.094Z,-86
2017-09-04T04:24:26.808Z,-87
2017-09-04T04:26:55.536Z,-86
2017-09-04T04:29:26.245Z,-86
2017-09-04T04:31:55.094Z,-86
2017-09-04T04:34:23.827Z,-86
2017-09-04T04:36:52.538Z,-86
2017-09-04T04:39:21.220Z,-86
2017-09-04T04:41:49.931Z,-85
2017-09-04T04:44:18.612Z,-86
2017-09-04T04:46:47.320Z,-86
2017-09-04T04:49:15.995Z,-86
2017-09-04T04:51:44.671Z,-86
2017-09-04T04:54:19.452Z,-86
2017-09-04T04:56:49.988Z,-85
2017-09-04T04:59:18.681Z,-86
2017-09-04T05:01:47.368Z,-86
2017-09-04T05:04:18.096Z,-86
2017-09-04T05:06:46.788Z,-87
2017-09-04T05:09:21.716Z,-86
2017-09-04T05:11:50.395Z,-85
2017-09-04T05:14:19.115Z,-86
2017-09-04T05:16:53.917Z,-86
2017-09-04T05:19:22.603Z,-85
2017-09-04T05:21:51.335Z,-87
2017-09-04T05:24:20.007Z,-86
2017-09-04T05:26:54.936Z,-87
2017-09-04T05:29:23.614Z,-87
2017-09-04T05:31:52.298Z,-85
2017-09-04T05:34:21.012Z,-86
2017-09-04T05:36:49.717Z,-86
2017-09-04T05:39:18.411Z,-84
2017-09-04T05:41:53.342Z,-85
2017-09-04T05:44:22.067Z,-85
2017-09-04T05:46:50.767Z,-84
2017-09-04T05:49:19.471Z,-85
2017-09-04T05:51:49.176Z,-85
2017-09-04T05:54:17.865Z,-86
2017-09-04T05:56:46.566Z,-85
2017-09-04T05:59:15.262Z,-86
2017-09-04T06:01:43.966Z,-85
2017-09-04T06:24:09.405Z,-85
2017-09-04T06:26:51.782Z,-87
2017-09-04T06:29:31.114Z,-84
2017-09-04T06:32:04.941Z,-82
2017-09-04T06:34:35.912Z,-83
2017-09-04T06:37:04.832Z,-83
2017-09-04T06:39:39.962Z,-82
2017-09-04T06:42:09.643Z,-83
2017-09-04T06:44:38.351Z,-85
2017-09-04T06:47:13.467Z,-84
2017-09-04T06:49:42.634Z,-83
2017-09-04T07:08:35.055Z,-91
2017-09-04T07:11:03.792Z,-90
2017-09-04T07:13:34.350Z,-87
2017-09-04T07:16:03.667Z,-87
2017-09-04T07:18:46.869Z,-87
2017-09-04T08:17:53.932Z,-86
2017-09-04T08:20:49.413Z,-85
2017-09-04T09:10:37.701Z,-87
2017-09-04T09:40:43.528Z,-85
2017-09-04T09:43:12.224Z,-85
2017-09-04T09:45:40.903Z,-86
2017-09-04T09:48:09.595Z,-85
2017-09-04T09:50:45.229Z,-85
2017-09-04T09:53:13.917Z,-85
2017-09-04T09:55:48.765Z,-85
2017-09-04T09:58:17.399Z,-85
2017-09-04T10:00:46.089Z,-85
2017-09-04T10:03:14.769Z,-85
2017-09-04T10:05:44.321Z,-85
2017-09-04T10:08:19.239Z,-86
2017-09-04T10:10:47.920Z,-86
2017-09-04T10:13:23.054Z,-86
2017-09-04T10:15:51.840Z,-86
2017-09-04T10:18:26.760Z,-85
2017-09-04T10:21:01.633Z,-85
2017-09-04T10:23:36.554Z,-85
2017-09-04T10:26:11.487Z,-86
2017-09-04T10:28:43.495Z,-85
2017-09-04T10:31:12.224Z,-86
2017-09-04T10:33:40.901Z,-86
2017-09-04T10:36:16.293Z,-85
2017-09-04T10:38:45.127Z,-85
2017-09-04T10:41:13.931Z,-85
2017-09-04T10:43:42.688Z,-85
2017-09-04T10:46:11.421Z,-85
2017-09-04T10:48:46.857Z,-85
2017-09-04T10:51:15.586Z,-85
2017-09-04T10:53:44.313Z,-85
2017-09-04T10:56:13.049Z,-85
2017-09-04T10:58:41.769Z,-85
2017-09-04T11:01:12.438Z,-85
2017-09-04T11:03:49.414Z,-85
2017-09-04T11:06:18.679Z,-85
2017-09-04T11:08:47.645Z,-84
2017-09-04T11:13:53.749Z,-85
2017-09-04T11:16:28.546Z,-85
2017-09-04T11:18:57.494Z,-84
2017-09-04T11:21:33.500Z,-86
2017-09-04T11:24:08.448Z,-88
2017-09-04T11:29:57.279Z,-88
2017-09-04T11:32:39.860Z,-90
2017-09-04T11:35:09.447Z,-88
2017-09-04T11:37:39.996Z,-88
2017-09-04T11:40:09.568Z,-87
2017-09-04T11:42:44.481Z,-87
2017-09-04T11:45:13.199Z,-89
2017-09-04T11:47:42.791Z,-88
2017-09-04T11:50:11.524Z,-88
2017-09-04T11:52:40.203Z,-87
2017-09-04T11:55:08.917Z,-89
2017-09-04T11:57:37.624Z,-89
2017-09-04T12:00:06.351Z,-89
2017-09-04T12:02:35.028Z,-86
2017-09-04T12:05:03.719Z,-88
2017-09-04T12:07:38.546Z,-88
2017-09-04T12:10:07.300Z,-88
2017-09-04T12:12:42.228Z,-86
2017-09-04T12:15:11.787Z,-83
2017-09-04T12:17:41.596Z,-84
2017-09-04T12:20:16.380Z,-85
2017-09-04T12:22:46.163Z,-84
2017-09-04T12:25:15.227Z,-84
2017-09-04T12:30:39.779Z,-86
2017-09-04T12:33:08.528Z,-85
2017-09-04T12:35:37.482Z,-88
2017-09-04T12:38:06.155Z,-88
2017-09-04T12:40:34.839Z,-87
2017-09-04T12:43:03.556Z,-90
2017-09-04T12:45:44.460Z,-86
2017-09-04T12:48:23.693Z,-87
2017-09-04T12:50:52.780Z,-88
2017-09-04T12:53:26.594Z,-87
2017-09-04T12:55:56.472Z,-87
2017-09-04T12:58:26.400Z,-87
2017-09-04T13:01:01.308Z,-87
2017-09-04T13:03:30.337Z,-87
2017-09-04T13:06:00.597Z,-88
2017-09-04T13:08:31.055Z,-88
2017-09-04T13:11:11.913Z,-88
2017-09-04T13:13:57.543Z,-87
2017-09-04T13:16:33.700Z,-87
2017-09-04T13:19:06.574Z,-87
2017-09-04T13:21:42.718Z,-87
2017-09-04T13:27:32.446Z,-91
2017-09-04T13:30:06.750Z,-89
2017-09-04T13:32:47.460Z,-88
2017-09-04T13:38:21.668Z,-90
2017-09-04T13:44:18.138Z,-89
2017-09-04T13:46:52.427Z,-89
2017-09-04T13:49:26.765Z,-88
2017-09-04T13:52:07.080Z,-88
2017-09-04T13:54:43.273Z,-87
2017-09-04T13:57:19.705Z,-86
2017-09-04T14:00:00.519Z,-90
2017-09-04T14:02:34.852Z,-86
2017-09-04T14:05:14.085Z,-88
2017-09-04T14:07:48.271Z,-88
2017-09-04T14:10:28.601Z,-86
2017-09-04T14:13:08.900Z,-89
2017-09-04T14:15:43.167Z,-88
2017-09-04T14:18:18.076Z,-89
2017-09-04T14:20:47.703Z,-86
2017-09-04T14:23:16.388Z,-88
2017-09-04T14:25:51.275Z,-87
2017-09-04T14:28:20.003Z,-87
2017-09-04T14:30:54.917Z,-88
2017-09-04T14:33:29.740Z,-89
2017-09-04T14:35:58.629Z,-88
2017-09-04T14:38:27.307Z,-88
2017-09-04T14:41:15.656Z,-88
2017-09-04T14:43:56.100Z,-88
2017-09-04T14:46:27.207Z,-92
2017-09-04T14:48:55.872Z,-86
2017-09-04T14:51:28.532Z,-88
2017-09-04T14:54:03.269Z,-91
2017-09-04T14:56:31.977Z,-87
2017-09-04T14:59:00.699Z,-87
2017-09-04T15:01:29.398Z,-87
2017-09-04T15:04:05.263Z,-87
2017-09-04T15:06:33.937Z,-89
2017-09-04T15:09:03.132Z,-89
2017-09-04T15:11:38.610Z,-84
2017-09-04T15:14:14.512Z,-89
2017-09-04T15:16:49.296Z,-87
2017-09-04T15:19:19.120Z,-86
2017-09-04T15:21:48.064Z,-88
2017-09-04T15:24:16.841Z,-87
2017-09-04T15:26:52.085Z,-88
2017-09-04T15:29:32.293Z,-86
2017-09-04T15:34:56.381Z,-88
2017-09-04T15:46:00.801Z,-88
2017-09-04T15:55:02.739Z,-85
2017-09-04T15:57:32.482Z,-87
2017-09-04T16:00:07.396Z,-88
2017-09-04T16:02:36.153Z,-87
2017-09-04T16:05:07.040Z,-86
2017-09-04T16:07:40.828Z,-87
2017-09-04T16:10:11.163Z,-88
2017-09-04T16:13:02.669Z,-89
2017-09-04T16:29:33.815Z,-87
2017-09-04T16:32:08.221Z,-87
2017-09-04T16:43:57.568Z,-89
2017-09-04T16:46:27.602Z,-91
2017-09-04T16:49:12.047Z,-92
2017-09-04T16:51:58.640Z,-89
2017-09-04T16:54:27.944Z,-87
2017-09-04T16:56:57.717Z,-88
2017-09-04T16:59:28.165Z,-88
2017-09-04T17:02:07.780Z,-90
2017-09-04T17:04:37.613Z,-91
2017-09-04T17:16:08.525Z,-91
2017-09-04T17:18:37.603Z,-92
2017-09-04T17:21:14.386Z,-87
2017-09-04T17:23:43.613Z,-87
2017-09-04T17:26:20.651Z,-87
2017-09-04T17:28:57.357Z,-87
2017-09-04T17:31:36.962Z,-88
2017-09-04T17:50:33.114Z,-84
2017-09-04T17:53:01.855Z,-86
2017-09-04T17:55:39.110Z,-84
2017-09-04T17:58:07.892Z,-86
2017-09-04T18:00:36.668Z,-87
2017-09-04T18:06:05.321Z,-86
2017-09-04T18:15:14.539Z,-88
2017-09-04T18:17:52.456Z,-86
2017-09-04T18:20:37.427Z,-87
2017-09-04T18:23:26.592Z,-89
2017-09-04T18:31:14.341Z,-88
2017-09-04T18:33:49.204Z,-90
2017-09-04T18:36:23.998Z,-86
2017-09-04T18:38:52.688Z,-92
2017-09-04T18:41:27.624Z,-88
2017-09-04T18:43:56.349Z,-88
2017-09-04T18:46:25.050Z,-88
2017-09-04T18:48:54.672Z,-88
2017-09-04T18:51:23.396Z,-87
2017-09-04T18:53:52.112Z,-87
2017-09-04T18:56:23.719Z,-88
2017-09-04T18:58:58.024Z,-85
2017-09-04T19:01:27.723Z,-87
2017-09-04T19:03:56.408Z,-88
2017-09-04T19:06:25.091Z,-87
2017-09-04T19:08:53.784Z,-88
2017-09-04T19:11:22.473Z,-89
2017-09-04T19:13:51.172Z,-89
2017-09-04T19:16:19.860Z,-89
2017-09-04T19:18:48.530Z,-88
2017-09-04T19:21:17.228Z,-89
2017-09-04T19:24:04.032Z,-87
2017-09-04T19:26:38.967Z,-83
2017-09-04T19:29:07.946Z,-82
2017-09-04T19:31:40.321Z,-82
2017-09-04T19:34:21.569Z,-82
2017-09-04T19:37:03.161Z,-83
2017-09-04T19:39:32.737Z,-85
2017-09-04T19:42:02.320Z,-85
2017-09-04T19:44:38.408Z,-83
2017-09-04T19:47:17.716Z,-82
2017-09-04T19:49:53.982Z,-81
2017-09-04T19:52:23.446Z,-83
2017-09-04T19:54:52.413Z,-84
2017-09-04T19:57:27.125Z,-86
2017-09-04T20:00:12.384Z,-86
2017-09-04T20:02:43.068Z,-87
2017-09-04T21:01:31.137Z,-87
2017-09-04T21:04:31.451Z,-88
2017-09-04T23:58:27.117Z,-86
